Time;durP1;ratioP1;P1;durP2;ratioP2;P2;SDS_P1;SDS_P2;PMS_P1;PMS_P2;Temp;Humidity;BMP_temperature;BMP_pressure;BME280_temperature;BME280_humidity;BME280_pressure;Samples;Min_cycle;Max_cycle;Signal;HPM_P1;HPM_P2
2021/10/09 00:02:04;;;;;;;24.13;17.02;;;7.70;99.90;;;;;;5083439;28;20205;-87
2021/10/09 00:04:31;;;;;;;22.52;16.65;;;7.70;99.90;;;;;;5076067;28;20198;-85
2021/10/09 00:06:59;;;;;;;20.27;16.70;;;7.70;99.90;;;;;;5083456;28;20207;-85
2021/10/09 00:09:27;;;;;;;25.23;17.52;;;7.70;99.90;;;;;;5070404;28;20217;-86
2021/10/09 00:11:54;;;;;;;22.98;17.17;;;7.70;99.90;;;;;;5075489;28;20225;-86
2021/10/09 00:14:21;;;;;;;31.23;17.27;;;7.70;99.90;;;;;;5071332;28;20224;-86
2021/10/09 00:16:49;;;;;;;23.13;16.92;;;7.70;99.90;;;;;;5076403;28;20194;-85
2021/10/09 00:19:17;;;;;;;22.23;16.77;;;7.70;99.90;;;;;;5075682;28;20228;-86
2021/10/09 00:21:44;;;;;;;24.77;16.77;;;7.70;99.90;;;;;;5081865;28;20207;-85
2021/10/09 00:24:18;;;;;;;22.35;16.55;;;7.70;99.90;;;;;;5098922;28;20216;-85
2021/10/09 00:26:45;;;;;;;23.85;16.95;;;7.60;99.90;;;;;;5067636;28;20540;-85
2021/10/09 00:29:12;;;;;;;30.53;16.27;;;7.60;99.90;;;;;;5069387;28;20229;-85
2021/10/09 00:31:39;;;;;;;22.50;15.85;;;7.60;99.90;;;;;;5075719;28;20206;-85
2021/10/09 00:34:06;;;;;;;20.15;15.73;;;7.70;99.90;;;;;;5091714;28;20246;-88
2021/10/09 00:36:33;;;;;;;20.55;16.15;;;7.60;99.90;;;;;;5074259;28;20273;-85
2021/10/09 00:39:00;;;;;;;23.98;16.00;;;7.60;99.90;;;;;;5089611;28;20234;-85
2021/10/09 00:41:29;;;;;;;23.03;16.53;;;7.60;99.90;;;;;;5071786;28;20209;-85
2021/10/09 00:43:56;;;;;;;21.50;15.60;;;7.60;99.90;;;;;;5083887;28;20232;-85
2021/10/09 00:46:23;;;;;;;22.02;16.05;;;7.50;99.90;;;;;;5076995;28;20200;-86
2021/10/09 00:48:50;;;;;;;24.80;15.95;;;7.60;99.90;;;;;;5078867;28;20569;-85
2021/10/09 00:51:17;;;;;;;21.10;15.20;;;7.60;99.90;;;;;;5075425;28;20710;-87
2021/10/09 00:53:47;;;;;;;23.23;15.07;;;7.60;99.90;;;;;;5077130;28;20641;-85
2021/10/09 00:56:17;;;;;;;23.98;15.55;;;7.70;99.90;;;;;;5082269;28;20201;-85
2021/10/09 00:58:47;;;;;;;25.85;16.02;;;7.60;99.80;;;;;;5071168;28;20240;-85
2021/10/09 01:01:14;;;;;;;20.60;15.40;;;7.60;99.90;;;;;;5079246;28;20640;-88
2021/10/09 01:03:42;;;;;;;24.30;15.48;;;7.60;99.90;;;;;;5084952;28;20311;-86
2021/10/09 01:06:09;;;;;;;21.63;15.82;;;7.60;99.90;;;;;;5069479;28;20260;-85
2021/10/09 01:08:36;;;;;;;20.67;15.68;;;7.70;99.90;;;;;;5078132;28;20243;-85
2021/10/09 01:11:03;;;;;;;24.20;15.50;;;7.70;99.80;;;;;;5072681;28;20652;-85
2021/10/09 01:13:30;;;;;;;20.97;15.37;;;7.70;99.90;;;;;;5077053;28;20288;-86
2021/10/09 01:15:59;;;;;;;21.33;15.43;;;7.70;99.70;;;;;;5078504;28;20193;-85
2021/10/09 01:18:25;;;;;;;22.53;15.67;;;7.70;99.60;;;;;;5084417;28;20609;-85
2021/10/09 01:20:58;;;;;;;21.33;15.32;;;7.60;99.60;;;;;;5091704;28;20227;-85
2021/10/09 01:23:25;;;;;;;24.20;14.88;;;7.60;99.90;;;;;;5072690;28;20224;-86
2021/10/09 01:25:53;;;;;;;23.50;15.82;;;7.60;99.90;;;;;;5072368;28;20197;-87
2021/10/09 01:28:20;;;;;;;19.40;14.43;;;7.60;99.80;;;;;;5079735;28;20279;-85
2021/10/09 01:30:47;;;;;;;26.80;14.97;;;7.60;99.90;;;;;;5076837;28;20199;-90
2021/10/09 01:33:15;;;;;;;26.63;15.87;;;7.60;99.90;;;;;;5076238;28;20228;-85
2021/10/09 01:35:48;;;;;;;21.92;14.68;;;7.70;99.60;;;;;;5082626;28;20197;-85
2021/10/09 01:38:17;;;;;;;21.23;14.53;;;7.70;99.70;;;;;;5076670;28;20663;-86
2021/10/09 01:40:44;;;;;;;22.47;15.00;;;7.70;99.50;;;;;;5077140;28;20225;-85
2021/10/09 01:43:11;;;;;;;20.60;15.20;;;7.70;99.60;;;;;;5078867;28;20221;-85
2021/10/09 01:45:39;;;;;;;22.27;15.03;;;7.70;99.30;;;;;;5086354;28;20209;-85
2021/10/09 01:48:06;;;;;;;25.30;15.88;;;7.70;99.00;;;;;;5080808;28;20217;-85
2021/10/09 01:50:33;;;;;;;22.00;15.47;;;7.60;99.30;;;;;;5086455;28;20211;-85
2021/10/09 01:53:01;;;;;;;23.77;16.10;;;7.50;99.50;;;;;;5077211;28;20230;-86
2021/10/09 01:55:29;;;;;;;24.83;16.73;;;7.50;99.80;;;;;;5072147;28;20902;-87
2021/10/09 01:57:56;;;;;;;22.27;16.35;;;7.40;99.90;;;;;;5080886;28;20305;-86
2021/10/09 02:00:24;;;;;;;22.23;16.15;;;7.40;99.90;;;;;;5074172;28;20220;-85
2021/10/09 02:02:51;;;;;;;27.55;17.20;;;7.40;99.90;;;;;;5077636;28;20233;-85
2021/10/09 02:05:18;;;;;;;22.58;16.83;;;7.30;99.90;;;;;;5068889;28;20708;-85
2021/10/09 02:07:45;;;;;;;24.27;16.80;;;7.30;99.90;;;;;;5079161;28;20224;-85
2021/10/09 02:10:15;;;;;;;27.93;16.67;;;7.30;99.90;;;;;;5083288;28;20208;-86
2021/10/09 02:12:43;;;;;;;26.13;16.37;;;7.30;99.90;;;;;;5089355;28;20294;-86
2021/10/09 02:15:13;;;;;;;21.50;16.27;;;7.30;99.90;;;;;;5077640;28;20232;-85
2021/10/09 02:18:00;;;;;;;21.53;16.17;;;7.30;99.90;;;;;;5081209;28;20237;-86
2021/10/09 02:25:56;;;;;;;24.77;15.73;;;7.40;99.80;;;;;;5072634;28;20680;-85
2021/10/09 02:28:25;;;;;;;19.63;15.15;;;7.30;99.70;;;;;;5077766;28;20251;-86
2021/10/09 02:30:54;;;;;;;24.23;16.10;;;7.40;99.70;;;;;;5073935;28;20203;-85
2021/10/09 02:33:22;;;;;;;24.52;16.85;;;7.40;99.90;;;;;;5080425;28;20232;-89
2021/10/09 02:35:50;;;;;;;20.60;16.10;;;7.40;99.50;;;;;;5076491;28;20353;-86
2021/10/09 02:38:17;;;;;;;20.10;15.35;;;7.40;99.50;;;;;;5077681;28;20227;-85
2021/10/09 02:40:45;;;;;;;25.90;16.13;;;7.40;99.50;;;;;;5080773;28;20223;-85
2021/10/09 02:43:12;;;;;;;25.50;16.27;;;7.40;99.30;;;;;;5084709;28;20220;-88
2021/10/09 02:45:41;;;;;;;24.93;16.40;;;7.40;99.20;;;;;;5073794;28;20230;-87
2021/10/09 02:48:10;;;;;;;22.40;16.10;;;7.40;99.20;;;;;;5087889;28;20220;-87
2021/10/09 02:50:38;;;;;;;22.80;15.27;;;7.40;99.00;;;;;;5087759;28;20209;-85
2021/10/09 02:53:05;;;;;;;24.50;15.50;;;7.40;99.10;;;;;;5093027;28;20220;-88
2021/10/09 02:55:32;;;;;;;19.97;14.63;;;7.40;99.00;;;;;;5091187;28;20190;-86
2021/10/09 02:57:59;;;;;;;24.60;15.80;;;7.40;98.70;;;;;;5076888;28;20217;-85
2021/10/09 03:00:26;;;;;;;21.47;16.03;;;7.30;98.40;;;;;;5072485;28;20228;-86
2021/10/09 03:02:54;;;;;;;21.07;15.80;;;7.20;98.70;;;;;;5090926;28;20224;-87
2021/10/09 03:05:22;;;;;;;23.37;15.87;;;7.10;98.90;;;;;;5087214;28;20558;-91
2021/10/09 03:07:49;;;;;;;23.53;15.83;;;7.10;98.90;;;;;;5086425;28;20230;-87
2021/10/09 03:10:16;;;;;;;24.30;16.63;;;7.10;98.90;;;;;;5087000;28;20200;-88
2021/10/09 03:12:43;;;;;;;22.77;16.53;;;7.10;99.00;;;;;;5089635;28;20228;-86
2021/10/09 03:15:11;;;;;;;22.17;16.40;;;7.00;99.10;;;;;;5087049;28;20192;-86
2021/10/09 03:17:39;;;;;;;23.83;16.93;;;7.00;99.30;;;;;;5078864;28;20273;-86
2021/10/09 03:20:11;;;;;;;24.20;17.23;;;7.00;99.20;;;;;;5088203;28;20231;-86
2021/10/09 03:22:39;;;;;;;23.70;16.77;;;7.00;99.50;;;;;;5080587;28;20244;-86
2021/10/09 03:25:08;;;;;;;24.10;17.20;;;7.00;99.70;;;;;;5077124;28;20199;-87
2021/10/09 03:27:35;;;;;;;23.10;15.77;;;7.00;99.60;;;;;;5080434;28;20294;-86
2021/10/09 03:30:02;;;;;;;23.53;16.80;;;6.90;99.60;;;;;;5079249;28;20201;-85
2021/10/09 03:32:29;;;;;;;24.47;16.67;;;6.90;99.60;;;;;;5061836;28;20223;-87
2021/10/09 03:34:56;;;;;;;23.57;16.63;;;6.90;99.90;;;;;;5080185;28;20196;-87
2021/10/09 03:37:24;;;;;;;25.27;17.03;;;6.80;99.80;;;;;;5084187;28;20237;-88
2021/10/09 03:39:53;;;;;;;24.80;17.20;;;6.90;99.90;;;;;;5069197;28;20220;-85
2021/10/09 03:42:23;;;;;;;22.80;16.47;;;6.90;99.70;;;;;;5068903;28;20208;-87
2021/10/09 03:44:54;;;;;;;21.90;16.73;;;7.00;99.60;;;;;;5071173;28;20205;-87
2021/10/09 03:47:24;;;;;;;27.57;17.30;;;7.00;99.50;;;;;;5059531;28;20255;-86
2021/10/09 03:49:54;;;;;;;25.23;17.13;;;7.00;99.50;;;;;;5070986;28;20197;-86
2021/10/09 03:52:38;;;;;;;24.33;17.47;;;7.00;99.40;;;;;;5074545;28;20202;-85
2021/10/09 03:55:09;;;;;;;22.00;16.33;;;7.00;99.50;;;;;;5071457;28;20201;-86
2021/10/09 03:57:36;;;;;;;22.80;15.93;;;6.90;99.10;;;;;;5070925;28;20308;-85
2021/10/09 04:00:04;;;;;;;23.00;16.50;;;6.90;99.20;;;;;;5076104;28;20221;-87
2021/10/09 04:02:31;;;;;;;26.20;17.80;;;6.90;99.20;;;;;;5067186;28;20221;-85
2021/10/09 04:04:58;;;;;;;21.77;16.37;;;6.80;99.10;;;;;;5073658;28;20197;-87
2021/10/09 04:07:25;;;;;;;24.03;17.03;;;6.70;99.40;;;;;;5070720;28;20224;-86
2021/10/09 04:09:52;;;;;;;24.10;17.40;;;6.70;99.40;;;;;;5075281;28;20207;-85
2021/10/09 04:12:21;;;;;;;22.20;16.80;;;6.60;99.40;;;;;;5077689;28;20229;-85
2021/10/09 04:14:49;;;;;;;22.77;16.20;;;6.70;99.30;;;;;;5079344;28;20200;-86
2021/10/09 04:17:16;;;;;;;23.57;17.67;;;6.60;99.10;;;;;;5075814;28;20197;-86
2021/10/09 04:19:43;;;;;;;27.30;17.33;;;6.60;99.20;;;;;;5073832;28;20209;-85
2021/10/09 04:22:10;;;;;;;28.27;17.47;;;6.50;99.30;;;;;;5081820;28;20686;-85
2021/10/09 04:24:37;;;;;;;23.00;17.53;;;6.50;99.30;;;;;;5074822;28;20304;-87
2021/10/09 04:27:04;;;;;;;22.80;16.70;;;6.50;99.50;;;;;;5076885;28;21419;-86
2021/10/09 04:29:33;;;;;;;26.10;17.13;;;6.60;99.30;;;;;;5070387;28;20205;-85
2021/10/09 04:32:00;;;;;;;24.17;16.90;;;6.60;99.30;;;;;;5079135;28;20214;-86
2021/10/09 04:34:27;;;;;;;24.03;17.70;;;6.60;99.50;;;;;;5068661;28;20220;-86
2021/10/09 04:36:55;;;;;;;28.97;20.53;;;6.70;99.60;;;;;;5070517;28;20595;-87
2021/10/09 04:39:22;;;;;;;32.43;23.53;;;6.80;99.70;;;;;;5066775;28;20282;-88
2021/10/09 04:41:49;;;;;;;40.33;24.50;;;6.90;99.90;;;;;;5069457;28;20223;-85
2021/10/09 04:44:17;;;;;;;39.23;24.87;;;7.10;99.90;;;;;;5062037;28;20227;-86
2021/10/09 04:46:45;;;;;;;35.57;24.17;;;7.20;99.90;;;;;;5068639;28;20201;-87
2021/10/09 04:49:12;;;;;;;36.43;25.30;;;7.30;99.90;;;;;;5069886;28;20221;-87
2021/10/09 04:51:39;;;;;;;40.67;25.97;;;7.30;99.90;;;;;;5060367;28;20305;-88
2021/10/09 04:54:06;;;;;;;39.67;24.53;;;7.50;99.90;;;;;;5072606;28;20229;-87
2021/10/09 04:56:34;;;;;;;32.23;23.53;;;7.40;99.90;;;;;;5075949;28;20228;-86
2021/10/09 04:59:01;;;;;;;41.92;26.13;;;7.50;99.90;;;;;;5077660;28;20405;-85
2021/10/09 05:01:28;;;;;;;38.90;25.93;;;7.60;99.90;;;;;;5070704;28;20218;-85
2021/10/09 05:03:56;;;;;;;33.70;23.98;;;7.60;99.90;;;;;;5093025;28;20683;-85
2021/10/09 05:06:23;;;;;;;38.58;24.90;;;7.60;99.90;;;;;;5078187;28;20276;-86
2021/10/09 05:08:50;;;;;;;35.55;24.75;;;7.70;99.90;;;;;;5074253;28;20216;-87
2021/10/09 05:11:18;;;;;;;39.03;25.35;;;7.70;99.90;;;;;;5081666;28;20205;-85
2021/10/09 05:13:45;;;;;;;38.00;25.38;;;7.80;99.60;;;;;;5068837;28;20222;-87
2021/10/09 05:16:12;;;;;;;36.15;25.73;;;7.90;99.50;;;;;;5073934;28;20283;-85
2021/10/09 05:18:39;;;;;;;37.92;25.02;;;7.90;99.40;;;;;;5076071;28;20228;-85
2021/10/09 05:21:08;;;;;;;42.70;25.00;;;7.90;99.20;;;;;;5080958;28;20232;-85
2021/10/09 05:23:36;;;;;;;33.83;24.02;;;7.90;99.20;;;;;;5081801;28;20224;-85
2021/10/09 05:26:04;;;;;;;36.35;23.92;;;7.90;99.10;;;;;;5068906;28;20244;-85
2021/10/09 05:28:39;;;;;;;33.97;24.67;;;8.00;98.90;;;;;;5059534;28;20252;-87
2021/10/09 05:31:08;;;;;;;35.97;24.48;;;8.10;98.40;;;;;;5067625;28;20200;-88
2021/10/09 05:33:39;;;;;;;38.28;24.98;;;8.10;98.30;;;;;;5066933;28;20218;-85
2021/10/09 05:36:08;;;;;;;43.47;25.33;;;8.00;98.10;;;;;;5067140;28;20251;-85
2021/10/09 05:38:40;;;;;;;37.40;24.23;;;8.00;98.30;;;;;;5070974;28;20583;-85
2021/10/09 05:41:07;;;;;;;35.65;23.98;;;8.00;98.20;;;;;;5064121;28;20318;-89
2021/10/09 05:43:34;;;;;;;35.97;24.20;;;7.90;98.30;;;;;;5072298;28;20231;-87
2021/10/09 05:46:01;;;;;;;35.33;24.58;;;7.90;98.10;;;;;;5074604;28;20775;-85
2021/10/09 05:48:28;;;;;;;34.75;25.10;;;8.00;98.00;;;;;;5086417;28;20284;-85
2021/10/09 05:51:00;;;;;;;38.55;24.42;;;7.90;98.00;;;;;;5075464;28;20205;-87
2021/10/09 05:56:21;;;;;;;36.45;24.65;;;7.90;97.80;;;;;;5076806;28;20196;-85
2021/10/09 06:32:30;;;;;;;40.63;26.65;;;8.10;97.20;;;;;;5081322;28;20281;-86
2021/10/09 07:05:47;;;;;;;43.13;25.13;;;8.30;95.80;;;;;;5145327;27;20643;-86
2021/10/09 07:08:16;;;;;;;37.25;25.58;;;8.30;95.80;;;;;;5162724;27;20233;-87
2021/10/09 07:10:56;;;;;;;40.63;25.77;;;8.40;95.80;;;;;;5174838;27;20190;-86
2021/10/09 07:13:27;;;;;;;36.85;25.88;;;8.40;95.80;;;;;;5145372;27;20230;-87
2021/10/09 07:15:54;;;;;;;36.88;26.80;;;8.40;95.80;;;;;;5130254;27;20210;-87
2021/10/09 07:18:21;;;;;;;41.10;26.00;;;8.50;95.90;;;;;;5132796;27;20218;-85
2021/10/09 07:20:48;;;;;;;34.67;25.05;;;8.70;95.60;;;;;;5129825;27;20330;-85
2021/10/09 07:23:16;;;;;;;35.90;24.92;;;8.80;95.30;;;;;;5141255;27;20215;-86
2021/10/09 07:25:43;;;;;;;37.92;24.75;;;8.80;94.70;;;;;;5131520;27;20203;-85
2021/10/09 07:28:10;;;;;;;34.65;25.35;;;8.70;95.00;;;;;;5152987;27;20228;-85
2021/10/09 07:30:37;;;;;;;42.17;25.55;;;8.70;94.60;;;;;;5145512;27;20677;-85
2021/10/09 07:33:04;;;;;;;35.47;24.25;;;8.70;94.80;;;;;;5131059;27;20258;-88
2021/10/09 07:35:32;;;;;;;34.83;24.67;;;8.80;94.80;;;;;;5128221;27;20192;-90
2021/10/09 07:37:58;;;;;;;36.28;23.98;;;8.80;94.30;;;;;;5130644;27;20287;-88
2021/10/09 07:40:27;;;;;;;36.78;24.52;;;9.00;94.40;;;;;;5133087;27;20276;-89
2021/10/09 07:42:54;;;;;;;34.50;24.23;;;9.40;93.30;;;;;;5132852;27;20250;-90
2021/10/09 07:45:21;;;;;;;37.28;24.63;;;9.60;92.70;;;;;;5133036;27;20206;-91
2021/10/09 07:47:49;;;;;;;32.13;24.52;;;9.50;92.10;;;;;;5127505;27;20278;-88
2021/10/09 07:50:16;;;;;;;36.00;24.63;;;9.40;92.80;;;;;;5133371;27;20195;-89
2021/10/09 07:52:44;;;;;;;35.20;22.90;;;9.40;93.10;;;;;;5132534;27;20216;-93
2021/10/09 07:55:11;;;;;;;38.88;24.92;;;9.50;92.90;;;;;;5122281;27;20274;-90
2021/10/09 07:57:41;;;;;;;34.50;24.27;;;9.60;92.60;;;;;;5139348;27;20234;-93
2021/10/09 08:00:35;;;;;;;36.47;24.10;;;9.70;91.90;;;;;;5140659;27;20229;-91
2021/10/09 08:07:07;;;;;;;36.60;24.20;;;9.80;91.60;;;;;;5137351;27;20178;-89
2021/10/09 08:13:11;;;;;;;36.10;24.50;;;9.90;91.00;;;;;;5512858;22;20562;-91
2021/10/09 08:15:38;;;;;;;37.65;25.27;;;9.70;91.00;;;;;;5076175;28;20209;-90
2021/10/09 08:18:05;;;;;;;37.75;25.92;;;9.70;91.80;;;;;;5077157;28;20201;-90
2021/10/09 08:20:32;;;;;;;36.90;25.52;;;9.60;91.80;;;;;;5071171;28;20247;-88
2021/10/09 08:23:01;;;;;;;36.53;25.15;;;9.70;91.90;;;;;;5068620;28;20236;-88
2021/10/09 08:36:32;;;;;;;41.00;26.35;;;9.60;91.50;;;;;;5073227;28;20208;-89
2021/10/09 08:38:58;;;;;;;40.30;26.60;;;9.50;91.70;;;;;;5066987;28;20220;-86
2021/10/09 08:41:26;;;;;;;39.25;26.58;;;9.40;91.70;;;;;;5078132;28;20225;-87
2021/10/09 08:43:55;;;;;;;42.42;27.65;;;9.50;92.00;;;;;;5076644;28;20217;-88
2021/10/09 08:46:22;;;;;;;39.13;26.88;;;9.40;92.00;;;;;;5065063;28;20208;-89
2021/10/09 08:48:52;;;;;;;39.72;26.70;;;9.30;92.50;;;;;;5067483;28;20696;-87
2021/10/09 08:51:28;;;;;;;39.30;26.23;;;9.40;92.30;;;;;;5069535;28;20198;-87
2021/10/09 08:54:04;;;;;;;34.28;23.88;;;9.30;92.70;;;;;;5075515;28;20238;-86
2021/10/09 08:56:33;;;;;;;31.88;22.17;;;9.50;92.30;;;;;;5080634;28;20260;-86
2021/10/09 08:59:15;;;;;;;30.00;20.90;;;9.70;90.60;;;;;;5078078;28;20228;-86
2021/10/09 09:04:50;;;;;;;31.55;21.75;;;9.90;90.60;;;;;;5059970;28;20231;-87
2021/10/09 09:07:59;;;;;;;30.27;21.45;;;9.90;90.70;;;;;;5068589;28;20190;-87
2021/10/09 09:27:19;;;;;;;32.85;21.27;;;10.20;87.10;;;;;;5093519;28;20228;-87
2021/10/09 09:33:23;;;;;;;26.25;19.50;;;10.20;87.90;;;;;;5078798;28;20258;-87
2021/10/09 09:39:04;;;;;;;24.48;18.20;;;11.60;78.70;;;;;;5083862;28;20224;-88
2021/10/09 09:41:41;;;;;;;27.48;18.90;;;12.00;75.20;;;;;;5087138;28;20303;-89
2021/10/09 09:44:11;;;;;;;25.60;18.55;;;12.50;70.00;;;;;;5084346;28;20654;-89
2021/10/09 09:46:38;;;;;;;24.23;18.63;;;12.80;63.60;;;;;;5080348;28;20197;-90
2021/10/09 09:49:07;;;;;;;24.63;19.30;;;12.90;62.40;;;;;;5083039;28;20213;-90
2021/10/09 09:51:38;;;;;;;25.52;19.08;;;12.80;60.70;;;;;;5080428;28;20208;-90
2021/10/09 09:54:06;;;;;;;26.15;19.08;;;12.60;66.80;;;;;;5072208;28;20217;-88
2021/10/09 10:00:44;;;;;;;26.63;19.67;;;11.30;74.50;;;;;;5101977;28;20527;-88
2021/10/09 10:03:12;;;;;;;30.55;19.17;;;11.30;74.40;;;;;;5105285;28;20200;-89
2021/10/09 10:05:42;;;;;;;26.38;18.48;;;11.80;73.70;;;;;;5082091;28;20200;-90
2021/10/09 10:08:12;;;;;;;24.17;18.23;;;12.70;67.70;;;;;;5088952;28;20600;-90
2021/10/09 10:14:04;;;;;;;23.90;17.63;;;14.10;54.60;;;;;;5093922;28;20231;-90
2021/10/09 10:17:06;;;;;;;24.80;17.73;;;14.00;56.20;;;;;;5100604;28;20180;-88
2021/10/09 10:23:07;;;;;;;21.35;17.83;;;14.90;51.00;;;;;;5102163;28;20193;-88
2021/10/09 10:36:38;;;;;;;22.67;16.52;;;15.10;45.70;;;;;;5093815;28;20185;-89
2021/10/09 10:39:08;;;;;;;23.48;18.38;;;15.40;46.70;;;;;;5096027;28;20197;-86
2021/10/09 10:56:17;;;;;;;20.73;16.02;;;16.70;39.00;;;;;;5103590;28;20263;-86
2021/10/09 10:58:46;;;;;;;23.17;17.08;;;16.40;39.00;;;;;;5105195;28;20232;-88
2021/10/09 11:05:17;;;;;;;22.67;17.58;;;15.90;42.00;;;;;;5002476;28;20239;-86
2021/10/09 11:07:45;;;;;;;24.73;19.75;;;15.40;43.90;;;;;;5001711;28;20208;-86
2021/10/09 11:10:15;;;;;;;26.63;19.17;;;14.90;45.20;;;;;;4999410;28;20204;-86
2021/10/09 11:22:59;;;;;;;21.17;15.55;;;14.30;49.10;;;;;;5104296;27;20277;-88
2021/10/09 11:25:28;;;;;;;21.55;16.10;;;14.10;50.50;;;;;;5107362;28;20985;-87
2021/10/09 11:28:04;;;;;;;21.00;15.25;;;13.80;50.30;;;;;;5116233;28;20226;-88
2021/10/09 11:30:32;;;;;;;20.83;15.07;;;13.70;50.20;;;;;;5110433;28;20195;-86
2021/10/09 11:33:03;;;;;;;19.58;14.73;;;13.70;50.20;;;;;;5094901;28;20220;-87
2021/10/09 11:35:34;;;;;;;20.58;16.20;;;13.60;50.00;;;;;;5098830;27;20228;-88
2021/10/09 11:38:04;;;;;;;20.45;15.38;;;13.00;55.10;;;;;;5143221;27;20326;-86
2021/10/09 11:40:33;;;;;;;17.23;14.40;;;13.00;54.80;;;;;;5122116;28;20635;-89
2021/10/09 11:43:24;;;;;;;19.92;14.95;;;13.10;56.40;;;;;;5129106;27;20224;-87
2021/10/09 11:45:59;;;;;;;20.13;14.38;;;13.20;53.80;;;;;;5124270;28;20565;-86
2021/10/09 11:54:33;;;;;;;19.63;13.65;;;13.30;53.30;;;;;;5105939;27;20318;-86
2021/10/09 11:57:01;;;;;;;21.30;13.65;;;13.20;53.40;;;;;;5116554;28;20199;-87
2021/10/09 11:59:39;;;;;;;22.20;15.27;;;13.30;55.10;;;;;;5124671;27;20279;-86
2021/10/09 12:02:07;;;;;;;19.85;13.73;;;13.30;53.50;;;;;;5124723;28;20223;-89
2021/10/09 12:04:41;;;;;;;19.23;13.77;;;13.30;53.40;;;;;;5119560;28;20220;-87
2021/10/09 12:07:55;;;;;;;18.75;14.10;;;13.40;55.10;;;;;;5122355;28;20195;-87
2021/10/09 12:10:39;;;;;;;22.73;14.02;;;13.60;51.50;;;;;;5129731;28;20211;-88
2021/10/09 12:16:14;;;;;;;18.17;12.70;;;13.60;52.90;;;;;;5084024;28;20224;-86
2021/10/09 12:18:54;;;;;;;20.63;11.65;;;13.70;50.20;;;;;;5050622;28;20642;-88
2021/10/09 12:21:25;;;;;;;16.70;11.93;;;13.90;50.40;;;;;;5053335;28;20252;-88
2021/10/09 12:27:18;;;;;;;16.73;12.70;;;13.80;50.30;;;;;;5055894;28;20198;-88
2021/10/09 12:36:31;;;;;;;17.40;11.90;;;13.80;50.30;;;;;;5041991;28;20238;-86
2021/10/09 12:49:12;;;;;;;15.20;9.73;;;13.90;44.60;;;;;;5066364;28;20205;-88
2021/10/09 12:52:10;;;;;;;14.57;9.63;;;13.80;46.00;;;;;;5062914;28;20580;-89
2021/10/09 12:54:52;;;;;;;12.07;8.02;;;13.80;49.40;;;;;;5065056;28;20202;-86
2021/10/09 12:57:19;;;;;;;14.05;9.30;;;13.80;44.40;;;;;;5065303;28;20198;-86
2021/10/09 13:07:37;;;;;;;10.73;7.55;;;13.90;44.40;;;;;;5063377;28;20178;-86
2021/10/09 14:02:43;;;;;;;12.90;6.88;;;13.80;41.60;;;;;;5546501;22;20274;-89
2021/10/09 14:05:41;;;;;;;10.48;6.82;;;13.80;40.60;;;;;;5089407;28;20208;-89
2021/10/09 14:14:30;;;;;;;15.23;6.80;;;13.80;43.30;;;;;;5848979;22;20269;-88
2021/10/09 14:16:57;;;;;;;11.57;6.95;;;13.60;44.40;;;;;;5091994;28;20283;-92
2021/10/09 14:19:26;;;;;;;13.65;7.60;;;13.60;43.90;;;;;;5094457;28;20216;-89
2021/10/09 14:21:53;;;;;;;9.15;6.53;;;13.60;42.70;;;;;;5087632;28;20325;-88
2021/10/09 14:24:21;;;;;;;9.50;6.40;;;13.60;42.10;;;;;;5097862;28;20284;-88
2021/10/09 14:27:02;;;;;;;15.60;7.68;;;13.60;44.10;;;;;;5102865;28;20231;-88
2021/10/09 14:29:29;;;;;;;13.80;7.63;;;13.60;45.30;;;;;;5110369;28;20296;-89
2021/10/09 14:31:57;;;;;;;11.93;7.68;;;13.60;44.10;;;;;;5074724;28;20203;-88
2021/10/09 15:28:08;;;;;;;11.82;7.40;;;12.90;54.90;;;;;;5084701;28;20193;-85
2021/10/09 15:30:39;;;;;;;15.32;7.95;;;12.70;54.90;;;;;;5084260;28;20185;-87
2021/10/09 15:33:06;;;;;;;12.48;7.18;;;12.70;55.00;;;;;;5068375;28;20689;-87
2021/10/09 15:35:34;;;;;;;11.63;7.43;;;12.70;54.10;;;;;;5057552;28;20211;-88
2021/10/09 15:38:01;;;;;;;14.35;7.53;;;12.60;54.90;;;;;;5055637;28;20237;-87
2021/10/09 15:40:28;;;;;;;13.05;7.68;;;12.60;54.20;;;;;;5049841;28;20189;-87
2021/10/09 15:42:58;;;;;;;13.20;7.57;;;12.60;54.20;;;;;;5083313;28;20236;-86
2021/10/09 16:29:31;;;;;;;16.75;10.32;;;12.70;72.70;;;;;;5089357;28;20242;-87
2021/10/09 16:31:58;;;;;;;94.38;78.75;;;12.80;77.50;;;;;;5091505;28;20201;-88
2021/10/09 16:34:25;;;;;;;101.22;81.10;;;13.00;71.70;;;;;;5044085;28;20233;-86
2021/10/09 17:11:35;;;;;;;15.70;9.80;;;10.80;80.40;;;;;;5062801;28;20640;-87
2021/10/09 17:22:10;;;;;;;15.65;10.30;;;10.50;84.00;;;;;;5107494;22;20221;-86
2021/10/09 17:35:16;;;;;;;17.70;10.73;;;10.30;86.70;;;;;;5059246;28;20192;-84
2021/10/09 18:08:59;;;;;;;17.73;11.18;;;9.70;91.30;;;;;;5043437;28;20205;-85
2021/10/09 18:11:26;;;;;;;16.27;11.20;;;9.60;91.20;;;;;;5029948;28;20207;-85
2021/10/09 18:32:14;;;;;;;16.55;11.13;;;9.40;91.70;;;;;;5158220;22;20223;-85
2021/10/09 19:17:13;;;;;;;20.48;12.85;;;8.80;93.50;;;;;;5081284;28;20213;-85
2021/10/09 19:19:42;;;;;;;17.70;12.82;;;8.80;93.80;;;;;;5063312;28;20285;-86
2021/10/09 19:22:12;;;;;;;17.20;12.65;;;8.60;93.80;;;;;;5045410;28;20243;-85
2021/10/09 19:24:39;;;;;;;20.73;12.30;;;8.60;93.90;;;;;;5050735;28;20228;-85
2021/10/09 19:27:12;;;;;;;17.85;12.02;;;8.50;93.90;;;;;;5074176;28;20225;-85
2021/10/09 19:29:39;;;;;;;16.92;11.68;;;8.50;94.10;;;;;;5074045;28;20229;-85
2021/10/09 19:32:07;;;;;;;14.48;11.48;;;8.50;94.00;;;;;;5082873;28;20637;-84
2021/10/09 19:44:54;;;;;;;21.63;12.30;;;8.40;94.00;;;;;;5078747;28;20254;-84
2021/10/09 19:47:21;;;;;;;21.48;12.77;;;8.40;93.70;;;;;;5081894;28;20277;-88
2021/10/09 19:49:50;;;;;;;19.65;11.70;;;8.40;93.90;;;;;;5082881;28;20212;-86
2021/10/09 19:52:19;;;;;;;14.50;11.43;;;8.40;93.90;;;;;;5081765;28;20236;-85
2021/10/09 20:25:21;;;;;;;13.68;9.73;;;8.20;92.70;;;;;;5000057;28;20239;-85
2021/10/09 20:27:48;;;;;;;15.32;9.10;;;8.20;92.40;;;;;;5009115;28;20206;-84
2021/10/09 22:45:06;;;;;;;16.97;9.33;;;7.10;91.60;;;;;;5035143;28;20218;-84
2021/10/09 22:47:33;;;;;;;19.53;9.50;;;7.00;91.80;;;;;;5023906;28;20201;-88
2021/10/09 22:50:00;;;;;;;16.50;9.30;;;6.90;92.10;;;;;;5024155;28;20197;-84
2021/10/09 22:52:27;;;;;;;15.50;9.50;;;6.90;92.40;;;;;;5031725;28;20210;-85
2021/10/09 22:54:54;;;;;;;14.83;8.70;;;6.90;92.50;;;;;;5022642;28;20196;-84
2021/10/09 22:57:21;;;;;;;17.60;9.90;;;6.90;92.50;;;;;;5022680;28;20214;-86
2021/10/09 22:59:48;;;;;;;13.43;9.30;;;6.80;92.60;;;;;;5033134;28;20240;-86
2021/10/09 23:02:16;;;;;;;15.00;9.20;;;6.70;92.70;;;;;;5027582;28;20221;-88
2021/10/09 23:04:44;;;;;;;13.93;9.60;;;6.70;92.70;;;;;;5032925;28;20672;-84
2021/10/09 23:07:11;;;;;;;16.00;8.93;;;6.70;92.90;;;;;;5037562;28;20221;-87
2021/10/09 23:09:38;;;;;;;14.37;9.37;;;6.80;92.90;;;;;;5033596;28;20227;-86
2021/10/09 23:12:05;;;;;;;14.50;9.80;;;6.80;93.00;;;;;;5015772;28;20723;-86
2021/10/09 23:14:33;;;;;;;14.50;9.73;;;6.70;92.70;;;;;;5001205;28;20753;-84
2021/10/09 23:16:59;;;;;;;15.33;9.77;;;6.60;93.00;;;;;;5002274;28;20207;-84
2021/10/09 23:19:28;;;;;;;15.20;9.13;;;6.60;93.10;;;;;;5006193;28;20251;-84
2021/10/09 23:21:55;;;;;;;14.27;9.70;;;6.60;93.20;;;;;;5025977;28;20204;-85
2021/10/09 23:24:22;;;;;;;13.77;9.47;;;6.50;93.20;;;;;;5021839;28;20329;-84
2021/10/09 23:26:49;;;;;;;15.70;9.40;;;6.30;93.40;;;;;;4998695;28;20214;-85
2021/10/09 23:29:16;;;;;;;16.50;9.87;;;6.20;94.00;;;;;;5008151;28;20285;-85
2021/10/09 23:31:42;;;;;;;15.13;9.43;;;6.20;94.20;;;;;;5012662;28;20204;-84
2021/10/09 23:34:09;;;;;;;15.03;9.87;;;6.20;94.30;;;;;;5008046;28;20230;-86
2021/10/09 23:36:37;;;;;;;15.93;10.10;;;6.20;94.20;;;;;;5006874;28;20191;-86
2021/10/09 23:39:06;;;;;;;14.87;10.00;;;6.30;94.20;;;;;;4997558;28;20245;-87
2021/10/09 23:41:33;;;;;;;15.87;9.97;;;6.40;94.00;;;;;;5002450;28;20204;-86
2021/10/09 23:44:01;;;;;;;14.37;9.53;;;6.40;93.60;;;;;;5013164;28;20240;-84
2021/10/09 23:46:34;;;;;;;15.70;9.83;;;6.40;93.80;;;;;;5008059;28;20187;-85
2021/10/09 23:49:00;;;;;;;15.03;9.80;;;6.40;93.70;;;;;;5010033;28;20230;-87
2021/10/09 23:51:27;;;;;;;15.00;9.60;;;6.30;94.00;;;;;;5012073;28;20670;-85
2021/10/09 23:53:55;;;;;;;19.90;10.73;;;6.30;94.10;;;;;;4998854;28;20589;-86
2021/10/09 23:56:22;;;;;;;18.70;10.20;;;6.30;94.20;;;;;;4998601;28;20652;-86
2021/10/09 23:58:49;;;;;;;17.03;10.50;;;6.30;94.20;;;;;;4997938;28;20228;-84
